createdAt,value
2018-12-26T00:00:51.962Z,298.36
2018-12-26T00:01:51.944Z,298.22
2018-12-26T00:02:51.931Z,297.96
2018-12-26T00:03:52.034Z,297.72
2018-12-26T00:04:51.916Z,298.73
2018-12-26T00:05:51.901Z,297.85
2018-12-26T00:06:51.899Z,298.99
2018-12-26T00:07:51.879Z,298.70
2018-12-26T00:08:51.873Z,297.86
2018-12-26T00:09:51.863Z,297.90
2018-12-26T00:10:51.878Z,298.48
2018-12-26T00:11:51.870Z,297.82
2018-12-26T00:12:51.831Z,297.83
2018-12-26T00:13:51.818Z,299.07
2018-12-26T00:14:51.835Z,298.27
2018-12-26T00:15:51.800Z,298.69
2018-12-26T00:16:51.790Z,298.01
2018-12-26T00:17:51.787Z,298.24
2018-12-26T00:18:51.768Z,298.15
2018-12-26T00:19:51.824Z,298.35
2018-12-26T00:20:51.747Z,298.61
2018-12-26T00:21:51.725Z,298.14
2018-12-26T00:22:51.721Z,298.79
2018-12-26T00:23:51.730Z,297.87
2018-12-26T00:24:51.710Z,298.99
2018-12-26T00:25:51.686Z,298.91
2018-12-26T00:26:51.679Z,298.18
2018-12-26T00:27:51.673Z,298.18
2018-12-26T00:28:51.666Z,298.28
2018-12-26T00:29:51.678Z,298.81
2018-12-26T00:30:51.637Z,298.27
2018-12-26T00:31:51.633Z,298.51
2018-12-26T00:32:51.647Z,298.48
2018-12-26T00:33:51.607Z,297.93
2018-12-26T00:34:51.597Z,298.61
2018-12-26T00:35:51.581Z,298.57
2018-12-26T00:36:51.578Z,297.93
2018-12-26T00:37:51.565Z,298.88
2018-12-26T00:38:51.557Z,298.17
2018-12-26T00:39:51.545Z,298.49
2018-12-26T00:40:51.527Z,298.98
2018-12-26T00:41:51.523Z,298.72
2018-12-26T00:42:51.514Z,298.77
2018-12-26T00:43:51.519Z,297.95
2018-12-26T00:44:51.493Z,298.90
2018-12-26T00:45:51.478Z,298.53
2018-12-26T00:46:51.476Z,298.03
2018-12-26T00:47:51.460Z,298.68
2018-12-26T00:48:51.464Z,298.57
2018-12-26T00:49:51.439Z,297.76
2018-12-26T00:50:51.448Z,298.48
2018-12-26T00:51:51.413Z,298.24
2018-12-26T00:52:51.408Z,298.20
2018-12-26T00:53:51.418Z,297.83
2018-12-26T00:54:51.382Z,298.27
2018-12-26T00:55:51.382Z,298.14
2018-12-26T00:56:51.366Z,298.61
2018-12-26T00:57:51.349Z,298.36
2018-12-26T00:58:51.342Z,298.44
2018-12-26T00:59:51.366Z,298.46
2018-12-26T01:00:51.413Z,298.69
2018-12-26T01:01:51.310Z,297.72
2018-12-26T01:02:51.298Z,298.39
2018-12-26T01:03:51.421Z,298.63
2018-12-26T01:04:51.281Z,299.10
2018-12-26T01:05:51.265Z,298.97
2018-12-26T01:06:51.256Z,297.69
2018-12-26T01:07:51.280Z,298.16
2018-12-26T01:08:51.234Z,297.87
2018-12-26T01:09:51.227Z,298.88
2018-12-26T01:10:51.212Z,298.80
2018-12-26T01:11:51.199Z,298.59
2018-12-26T01:12:51.210Z,298.53
2018-12-26T01:13:51.189Z,298.49
2018-12-26T01:14:51.186Z,298.17
2018-12-26T01:15:51.160Z,298.31
2018-12-26T01:16:51.149Z,298.04
2018-12-26T01:17:51.141Z,298.47
2018-12-26T01:18:51.130Z,297.96
2018-12-26T01:19:51.132Z,298.32
2018-12-26T01:20:51.105Z,297.97
2018-12-26T01:21:51.099Z,298.52
2018-12-26T01:22:51.089Z,298.38
2018-12-26T01:23:51.083Z,298.36
2018-12-26T01:24:51.067Z,299.16
2018-12-26T01:25:51.052Z,298.78
2018-12-26T01:26:51.049Z,298.56
2018-12-26T01:27:51.033Z,298.59
2018-12-26T01:28:51.024Z,298.69
2018-12-26T01:29:51.018Z,298.18
2018-12-26T01:30:51.002Z,298.33
2018-12-26T01:31:51.002Z,298.35
2018-12-26T01:32:50.976Z,298.52
2018-12-26T01:33:50.983Z,298.09
2018-12-26T01:34:50.964Z,298.09
2018-12-26T01:35:50.960Z,298.01
2018-12-26T01:36:50.941Z,298.62
2018-12-26T01:37:50.926Z,298.71
2018-12-26T01:38:50.917Z,298.92
2018-12-26T01:39:50.905Z,298.41
2018-12-26T01:40:50.894Z,298.58
2018-12-26T01:41:50.902Z,297.68
2018-12-26T01:42:50.884Z,298.66
2018-12-26T01:43:50.909Z,299.04
2018-12-26T01:44:50.854Z,298.18
2018-12-26T01:45:50.843Z,298.23
2018-12-26T01:46:50.840Z,298.11
2018-12-26T01:47:50.820Z,298.26
2018-12-26T01:48:50.813Z,298.49
2018-12-26T01:49:50.830Z,298.49
2018-12-26T01:50:50.819Z,298.51
2018-12-26T01:51:50.773Z,298.55
2018-12-26T01:52:50.774Z,298.45
2018-12-26T01:53:50.776Z,298.30
2018-12-26T01:54:50.747Z,299.15
2018-12-26T01:55:50.738Z,298.24
2018-12-26T01:56:50.727Z,297.92
2018-12-26T01:57:50.723Z,298.24
2018-12-26T01:58:50.722Z,298.52
2018-12-26T01:59:50.695Z,298.88
2018-12-26T02:00:50.688Z,298.69
2018-12-26T02:01:50.671Z,298.62
2018-12-26T02:02:50.666Z,298.99
2018-12-26T02:03:50.654Z,299.07
2018-12-26T02:04:50.643Z,299.07
2018-12-26T02:05:50.641Z,299.35
2018-12-26T02:06:50.618Z,298.25
2018-12-26T02:07:50.612Z,298.28
2018-12-26T02:08:50.600Z,298.39
2018-12-26T02:09:50.590Z,298.29
2018-12-26T02:10:50.577Z,298.02
2018-12-26T02:11:50.574Z,298.28
2018-12-26T02:12:50.588Z,298.38
2018-12-26T02:13:50.543Z,298.23
2018-12-26T02:14:50.537Z,298.76
2018-12-26T02:15:50.531Z,298.17
2018-12-26T02:16:50.520Z,297.79
2018-12-26T02:17:50.511Z,298.14
2018-12-26T02:18:50.492Z,298.16
2018-12-26T02:19:50.486Z,298.21
2018-12-26T02:20:50.474Z,298.99
2018-12-26T02:21:50.462Z,298.40
2018-12-26T02:22:50.523Z,298.54
2018-12-26T02:23:50.482Z,298.51
2018-12-26T02:24:50.427Z,299.22
2018-12-26T02:25:50.420Z,298.48
2018-12-26T02:26:50.409Z,298.61
2018-12-26T02:27:50.401Z,298.38
2018-12-26T02:28:50.388Z,298.47
2018-12-26T02:29:50.389Z,298.59
2018-12-26T02:30:50.389Z,298.57
2018-12-26T02:31:50.352Z,298.40
2018-12-26T02:32:50.368Z,298.39
2018-12-26T02:33:50.339Z,298.33
2018-12-26T02:34:50.387Z,298.27
2018-12-26T02:35:50.313Z,298.71
2018-12-26T02:36:50.502Z,298.38
2018-12-26T02:37:50.336Z,298.89
2018-12-26T02:38:50.284Z,298.67
2018-12-26T02:39:50.272Z,298.35
2018-12-26T02:40:50.259Z,298.40
2018-12-26T02:41:50.333Z,298.22
2018-12-26T02:42:50.261Z,298.75
2018-12-26T02:43:50.245Z,298.34
2018-12-26T02:44:50.240Z,298.82
2018-12-26T02:45:50.262Z,298.98
2018-12-26T02:46:50.215Z,298.35
2018-12-26T02:47:50.200Z,298.63
2018-12-26T02:48:50.188Z,298.10
2018-12-26T02:49:50.176Z,298.35
2018-12-26T02:50:50.172Z,298.03
2018-12-26T02:51:50.143Z,298.65
2018-12-26T02:52:50.138Z,298.95
2018-12-26T02:53:50.125Z,298.54
2018-12-26T02:54:50.115Z,297.81
2018-12-26T02:55:50.102Z,299.27
2018-12-26T02:56:50.139Z,298.62
2018-12-26T02:57:50.088Z,298.23
2018-12-26T02:58:50.069Z,298.69
2018-12-26T02:59:50.063Z,298.51
2018-12-26T03:00:50.047Z,298.70
2018-12-26T03:01:50.035Z,298.11
2018-12-26T03:02:50.026Z,298.41
2018-12-26T03:03:50.027Z,298.57
2018-12-26T03:04:50.017Z,298.35
2018-12-26T03:05:50.006Z,298.71
2018-12-26T03:06:49.984Z,298.71
2018-12-26T03:07:49.996Z,298.60
2018-12-26T03:08:49.966Z,298.53
2018-12-26T03:09:49.953Z,298.98
2018-12-26T03:10:49.945Z,298.24
2018-12-26T03:11:49.927Z,298.77
2018-12-26T03:12:49.925Z,297.99
2018-12-26T03:13:49.938Z,298.86
2018-12-26T03:14:49.905Z,298.84
2018-12-26T03:15:49.894Z,298.47
2018-12-26T03:16:49.880Z,298.91
2018-12-26T03:17:49.867Z,299.14
2018-12-26T03:18:49.872Z,298.10
2018-12-26T03:19:49.852Z,298.26
2018-12-26T03:20:49.854Z,298.70
2018-12-26T03:21:49.833Z,299.11
2018-12-26T03:22:49.818Z,298.44
2018-12-26T03:23:49.804Z,298.69
2018-12-26T03:24:49.798Z,298.43
2018-12-26T03:25:49.795Z,298.84
2018-12-26T03:26:55.984Z,298.51
2018-12-26T03:27:50.772Z,298.77
2018-12-26T03:28:49.758Z,298.33
2018-12-26T03:29:49.763Z,297.67
2018-12-26T03:30:49.748Z,298.18
2018-12-26T03:31:49.733Z,298.60
2018-12-26T03:32:49.712Z,298.28
2018-12-26T03:33:49.704Z,298.34
2018-12-26T03:34:49.685Z,298.61
2018-12-26T03:35:49.677Z,298.48
2018-12-26T03:36:49.670Z,298.17
2018-12-26T03:37:49.659Z,298.66
2018-12-26T03:38:49.646Z,298.35
2018-12-26T03:39:49.639Z,298.89
2018-12-26T03:40:49.627Z,298.33
2018-12-26T03:41:49.614Z,298.48
2018-12-26T03:42:49.610Z,298.81
2018-12-26T03:43:49.590Z,298.50
2018-12-26T03:44:49.588Z,298.33
2018-12-26T03:45:49.571Z,297.70
2018-12-26T03:46:49.560Z,298.55
2018-12-26T03:47:49.544Z,298.47
2018-12-26T03:48:49.536Z,297.96
2018-12-26T03:49:49.547Z,298.35
2018-12-26T03:50:49.520Z,298.84
2018-12-26T03:51:49.507Z,298.13
2018-12-26T03:52:49.496Z,298.69
2018-12-26T03:53:49.483Z,297.98
2018-12-26T03:54:49.491Z,298.50
2018-12-26T03:55:49.475Z,298.83
2018-12-26T03:56:49.461Z,298.54
2018-12-26T03:57:49.439Z,298.15
2018-12-26T03:58:49.447Z,298.59
2018-12-26T03:59:49.421Z,298.12
2018-12-26T04:00:49.470Z,298.57
2018-12-26T04:01:49.397Z,298.60
2018-12-26T04:02:49.464Z,298.83
2018-12-26T04:03:49.417Z,298.29
2018-12-26T04:04:49.509Z,298.69
2018-12-26T04:05:49.361Z,298.56
2018-12-26T04:06:49.367Z,298.66
2018-12-26T04:07:49.350Z,298.25
2018-12-26T04:08:49.355Z,298.31
2018-12-26T04:09:49.312Z,298.62
2018-12-26T04:10:49.322Z,297.99
2018-12-26T04:11:49.293Z,297.90
2018-12-26T04:12:49.283Z,298.16
2018-12-26T04:13:49.278Z,298.06
2018-12-26T04:14:49.271Z,298.35
2018-12-26T04:15:49.254Z,297.88
2018-12-26T04:16:49.243Z,298.78
2018-12-26T04:17:49.231Z,297.76
2018-12-26T04:18:49.219Z,297.96
2018-12-26T04:19:49.207Z,298.60
2018-12-26T04:20:49.200Z,298.28
2018-12-26T04:21:49.188Z,298.37
2018-12-26T04:22:49.185Z,298.58
2018-12-26T04:23:49.188Z,298.68
2018-12-26T04:24:49.163Z,298.19
2018-12-26T04:25:49.158Z,298.35
2018-12-26T04:26:49.132Z,298.36
2018-12-26T04:27:49.153Z,298.25
2018-12-26T04:28:49.115Z,298.62
2018-12-26T04:29:49.102Z,298.44
2018-12-26T04:30:49.094Z,298.49
2018-12-26T04:31:49.084Z,298.56
2018-12-26T04:32:49.085Z,297.97
2018-12-26T04:33:49.071Z,298.14
2018-12-26T04:34:49.045Z,298.18
2018-12-26T04:35:49.045Z,298.41
2018-12-26T04:36:49.039Z,298.87
2018-12-26T04:37:49.029Z,298.35
2018-12-26T04:38:49.016Z,298.08
2018-12-26T04:39:48.998Z,298.22
2018-12-26T04:40:48.994Z,298.44
2018-12-26T04:41:48.985Z,298.31
2018-12-26T04:42:48.985Z,297.81
2018-12-26T04:43:51.353Z,298.77
2018-12-26T04:44:48.986Z,298.08
2018-12-26T04:45:48.946Z,298.68
2018-12-26T04:46:48.931Z,298.66
2018-12-26T04:47:48.915Z,299.52
2018-12-26T04:48:48.902Z,297.78
2018-12-26T04:49:48.912Z,298.58
2018-12-26T04:50:48.916Z,298.69
2018-12-26T04:51:48.871Z,298.60
2018-12-26T04:52:48.907Z,298.25
2018-12-26T04:53:48.856Z,298.65
2018-12-26T04:54:48.854Z,298.20
2018-12-26T04:55:48.867Z,298.41
2018-12-26T04:56:48.843Z,297.94
2018-12-26T04:57:48.810Z,298.54
2018-12-26T04:58:48.799Z,298.09
2018-12-26T04:59:48.783Z,298.57
2018-12-26T05:00:48.775Z,297.92
2018-12-26T05:01:48.777Z,298.93
2018-12-26T05:02:48.765Z,298.44
2018-12-26T05:03:48.781Z,298.17
2018-12-26T05:04:48.800Z,298.07
2018-12-26T05:05:48.721Z,298.32
2018-12-26T05:06:48.713Z,297.72
2018-12-26T05:07:48.792Z,298.52
2018-12-26T05:08:48.690Z,298.64
2018-12-26T05:09:48.683Z,298.55
2018-12-26T05:10:48.671Z,298.62
2018-12-26T05:11:48.660Z,298.20
2018-12-26T05:12:48.659Z,299.03
2018-12-26T05:13:48.644Z,298.82
2018-12-26T05:14:48.642Z,298.34
2018-12-26T05:15:48.618Z,298.57
2018-12-26T05:16:48.625Z,298.21
2018-12-26T05:17:48.835Z,298.85
2018-12-26T05:18:48.580Z,297.96
2018-12-26T05:19:48.592Z,298.72
2018-12-26T05:20:48.569Z,299.21
2018-12-26T05:21:48.553Z,298.65
2018-12-26T05:22:48.553Z,298.65
2018-12-26T05:23:48.535Z,299.04
2018-12-26T05:24:48.522Z,298.96
2018-12-26T05:25:48.512Z,298.66
2018-12-26T05:26:48.531Z,299.55
2018-12-26T05:27:48.485Z,298.93
2018-12-26T05:28:48.476Z,299.80
2018-12-26T05:29:48.473Z,298.89
2018-12-26T05:30:48.459Z,298.49
2018-12-26T05:31:48.441Z,299.12
2018-12-26T05:32:48.446Z,298.86
2018-12-26T05:33:48.430Z,298.41
2018-12-26T05:34:48.414Z,298.87
2018-12-26T05:35:48.398Z,298.62
2018-12-26T05:36:48.397Z,299.42
2018-12-26T05:37:48.386Z,298.83
2018-12-26T05:38:48.376Z,299.54
2018-12-26T05:39:48.362Z,299.28
2018-12-26T05:40:48.349Z,298.59
2018-12-26T05:41:48.334Z,298.23
2018-12-26T05:42:48.341Z,298.76
2018-12-26T05:43:48.335Z,298.46
2018-12-26T05:44:48.305Z,298.51
2018-12-26T05:45:48.311Z,299.22
2018-12-26T05:46:48.287Z,299.69
2018-12-26T05:47:48.275Z,298.57
2018-12-26T05:48:48.272Z,298.12
2018-12-26T05:49:48.260Z,298.09
2018-12-26T05:50:48.245Z,298.73
2018-12-26T05:51:48.279Z,298.04
2018-12-26T05:52:48.221Z,298.53
2018-12-26T05:53:48.213Z,298.90
2018-12-26T05:54:48.205Z,299.28
2018-12-26T05:55:48.197Z,298.71
2018-12-26T05:56:48.198Z,297.82
2018-12-26T05:57:48.170Z,298.37
2018-12-26T05:58:48.165Z,297.78
2018-12-26T05:59:48.180Z,298.53
2018-12-26T06:00:48.137Z,298.62
2018-12-26T06:01:48.165Z,298.38
2018-12-26T06:02:48.161Z,298.02
2018-12-26T06:03:48.136Z,298.08
2018-12-26T06:04:48.146Z,298.28
2018-12-26T06:05:48.083Z,298.16
2018-12-26T06:06:48.072Z,297.82
2018-12-26T06:07:48.076Z,297.89
2018-12-26T06:08:48.057Z,298.55
2018-12-26T06:09:48.062Z,297.61
2018-12-26T06:10:48.029Z,297.87
2018-12-26T06:11:48.017Z,297.24
2018-12-26T06:12:48.027Z,297.67
2018-12-26T06:13:48.003Z,297.92
2018-12-26T06:14:47.998Z,298.20
2018-12-26T06:15:47.978Z,297.83
2018-12-26T06:16:47.966Z,298.35
2018-12-26T06:17:47.956Z,298.08
2018-12-26T06:18:47.952Z,298.04
2018-12-26T06:19:47.937Z,297.88
2018-12-26T06:20:47.929Z,297.85
2018-12-26T06:21:47.937Z,297.77
2018-12-26T06:22:47.904Z,297.76
2018-12-26T06:23:47.901Z,297.29
2018-12-26T06:24:47.883Z,298.03
2018-12-26T06:25:47.892Z,297.17
2018-12-26T06:26:47.869Z,297.72
2018-12-26T06:27:51.501Z,297.98
2018-12-26T06:28:47.943Z,297.71
2018-12-26T06:29:47.849Z,297.01
2018-12-26T06:30:47.819Z,297.51
2018-12-26T06:31:47.814Z,297.44
2018-12-26T06:32:47.813Z,297.44
2018-12-26T06:33:47.789Z,297.76
2018-12-26T06:34:47.795Z,297.71
2018-12-26T06:35:47.811Z,297.25
2018-12-26T06:36:47.757Z,297.23
2018-12-26T06:37:47.751Z,297.27
2018-12-26T06:38:47.755Z,297.59
2018-12-26T06:39:47.745Z,298.16
2018-12-26T06:40:47.873Z,297.26
2018-12-26T06:41:47.702Z,297.29
2018-12-26T06:42:47.711Z,296.77
2018-12-26T06:43:47.735Z,297.05
2018-12-26T06:44:47.677Z,297.32
2018-12-26T06:45:47.668Z,297.08
2018-12-26T06:46:47.651Z,296.74
2018-12-26T06:47:47.636Z,297.15
2018-12-26T06:48:47.631Z,297.14
2018-12-26T06:49:47.617Z,297.38
2018-12-26T06:50:47.610Z,296.67
2018-12-26T06:51:47.601Z,296.58
2018-12-26T06:52:47.586Z,296.76
2018-12-26T06:53:47.581Z,297.05
2018-12-26T06:54:47.600Z,297.24
2018-12-26T06:55:47.558Z,296.71
2018-12-26T06:56:47.560Z,296.75
2018-12-26T06:57:47.531Z,296.86
2018-12-26T06:58:47.532Z,296.44
2018-12-26T06:59:47.525Z,296.59
2018-12-26T07:00:47.511Z,296.84
2018-12-26T07:01:47.491Z,296.83
2018-12-26T07:02:47.608Z,297.12
2018-12-26T07:03:47.475Z,296.26
2018-12-26T07:04:47.463Z,296.86
2018-12-26T07:05:47.457Z,297.12
2018-12-26T07:06:47.460Z,297.17
2018-12-26T07:07:47.439Z,297.19
2018-12-26T07:08:47.425Z,297.28
2018-12-26T07:09:47.427Z,297.15
2018-12-26T07:10:47.392Z,297.07
2018-12-26T07:11:47.384Z,296.97
2018-12-26T07:12:47.390Z,296.74
2018-12-26T07:13:47.370Z,296.66
2018-12-26T07:14:47.379Z,296.67
2018-12-26T07:15:47.343Z,296.50
2018-12-26T07:16:47.365Z,296.90
2018-12-26T07:17:47.326Z,296.73
2018-12-26T07:18:47.317Z,296.45
2018-12-26T07:19:47.306Z,297.22
2018-12-26T07:20:47.292Z,296.81
2018-12-26T07:21:47.961Z,296.31
2018-12-26T07:22:47.279Z,296.17
2018-12-26T07:23:47.263Z,296.27
2018-12-26T07:24:47.251Z,296.97
2018-12-26T07:25:47.246Z,296.46
2018-12-26T07:26:47.227Z,296.17
2018-12-26T07:27:47.218Z,296.72
2018-12-26T07:28:47.227Z,297.14
2018-12-26T07:29:47.199Z,296.62
2018-12-26T07:30:47.183Z,297.21
2018-12-26T07:31:47.181Z,296.80
2018-12-26T07:32:47.163Z,296.82
2018-12-26T07:33:47.259Z,296.81
2018-12-26T07:34:47.150Z,297.07
2018-12-26T07:35:47.146Z,297.41
2018-12-26T07:36:47.127Z,296.87
2018-12-26T07:37:47.116Z,297.04
2018-12-26T07:38:47.101Z,297.56
2018-12-26T07:39:47.088Z,296.65
2018-12-26T07:40:47.105Z,296.79
2018-12-26T07:41:47.077Z,297.06
2018-12-26T07:42:47.065Z,295.75
2018-12-26T07:43:47.083Z,297.18
2018-12-26T07:44:47.046Z,297.43
2018-12-26T07:45:47.036Z,296.14
2018-12-26T07:46:47.043Z,296.68
2018-12-26T07:47:47.032Z,296.83
2018-12-26T07:48:47.002Z,296.43
2018-12-26T07:49:47.050Z,297.02
2018-12-26T07:50:46.975Z,296.62
2018-12-26T07:51:46.968Z,296.78
2018-12-26T07:52:46.955Z,296.52
2018-12-26T07:53:46.951Z,296.79
2018-12-26T07:54:46.947Z,296.03
2018-12-26T07:55:46.919Z,296.99
2018-12-26T07:56:46.918Z,296.65
2018-12-26T07:57:46.913Z,297.44
2018-12-26T07:58:46.912Z,296.45
2018-12-26T07:59:46.886Z,296.49
2018-12-26T08:00:46.868Z,296.70
2018-12-26T08:01:46.861Z,296.61
2018-12-26T08:02:46.860Z,296.52
2018-12-26T08:03:46.838Z,296.65
2018-12-26T08:04:46.852Z,296.51
2018-12-26T08:05:46.857Z,296.18
2018-12-26T08:06:46.816Z,296.18
2018-12-26T08:07:46.826Z,296.67
2018-12-26T08:08:46.802Z,296.60
2018-12-26T08:09:46.799Z,296.52
2018-12-26T08:10:46.772Z,296.58
2018-12-26T08:11:46.773Z,296.56
2018-12-26T08:12:46.746Z,297.04
2018-12-26T08:13:46.735Z,297.16
2018-12-26T08:14:46.723Z,296.77
2018-12-26T08:15:46.748Z,296.49
2018-12-26T08:16:46.829Z,295.99
2018-12-26T08:17:46.739Z,296.56
2018-12-26T08:18:46.711Z,296.13
2018-12-26T08:19:46.671Z,296.30
2018-12-26T08:20:46.666Z,296.28
2018-12-26T08:21:46.661Z,296.30
2018-12-26T08:22:46.653Z,296.51
2018-12-26T08:23:46.625Z,296.56
2018-12-26T08:24:46.611Z,296.29
2018-12-26T08:25:46.636Z,295.66
2018-12-26T08:26:46.597Z,296.66
2018-12-26T08:27:46.591Z,296.27
2018-12-26T08:28:46.605Z,296.39
2018-12-26T08:29:46.599Z,296.55
2018-12-26T08:30:46.555Z,296.04
2018-12-26T08:31:46.546Z,296.70
2018-12-26T08:32:46.529Z,295.37
2018-12-26T08:33:46.527Z,296.83
2018-12-26T08:34:46.537Z,296.08
2018-12-26T08:35:46.503Z,296.62
2018-12-26T08:36:46.491Z,296.39
2018-12-26T08:37:46.480Z,296.46
2018-12-26T08:38:46.484Z,296.75
2018-12-26T08:39:46.469Z,295.83
2018-12-26T08:40:46.482Z,297.19
2018-12-26T08:41:46.477Z,296.63
2018-12-26T08:42:46.430Z,296.08
2018-12-26T08:43:46.416Z,296.42
2018-12-26T08:44:46.418Z,296.67
2018-12-26T08:45:46.480Z,296.21
2018-12-26T08:46:46.386Z,296.44
2018-12-26T08:47:46.396Z,296.34
2018-12-26T08:48:46.364Z,296.02
2018-12-26T08:49:46.357Z,296.94
2018-12-26T08:50:46.350Z,296.24
2018-12-26T08:51:46.375Z,297.16
2018-12-26T08:52:46.320Z,296.36
2018-12-26T08:53:46.308Z,296.69
2018-12-26T08:54:46.298Z,296.28
2018-12-26T08:55:46.289Z,296.11
2018-12-26T08:56:46.304Z,296.57
2018-12-26T08:57:46.350Z,296.13
2018-12-26T08:58:46.406Z,296.61
2018-12-26T08:59:46.282Z,295.94
2018-12-26T09:00:46.235Z,297.06
2018-12-26T09:01:46.234Z,297.12
2018-12-26T09:02:46.217Z,295.75
2018-12-26T09:03:46.253Z,296.20
2018-12-26T09:04:46.194Z,296.87
2018-12-26T09:05:46.184Z,296.38
2018-12-26T09:06:46.180Z,295.87
2018-12-26T09:07:46.164Z,296.44
2018-12-26T09:08:46.223Z,296.19
2018-12-26T09:09:46.142Z,296.50
2018-12-26T09:10:46.148Z,296.33
2018-12-26T09:11:46.134Z,296.73
2018-12-26T09:12:46.109Z,296.03
2018-12-26T09:13:46.107Z,295.91
2018-12-26T09:14:46.092Z,296.45
2018-12-26T09:15:46.088Z,295.69
2018-12-26T09:16:46.073Z,296.40
2018-12-26T09:17:46.060Z,296.14
2018-12-26T09:18:46.047Z,296.75
2018-12-26T09:19:46.034Z,296.86
2018-12-26T09:20:46.054Z,296.36
2018-12-26T09:21:46.039Z,296.57
2018-12-26T09:22:46.006Z,296.23
2018-12-26T09:23:45.999Z,296.29
2018-12-26T09:24:46.011Z,296.49
2018-12-26T09:25:45.972Z,296.42
2018-12-26T09:26:45.960Z,296.34
2018-12-26T09:27:45.978Z,296.21
2018-12-26T09:28:45.946Z,296.49
2018-12-26T09:29:45.946Z,296.63
2018-12-26T09:30:45.987Z,296.79
2018-12-26T09:31:45.914Z,296.80
2018-12-26T09:32:45.910Z,296.14
2018-12-26T09:33:45.894Z,296.17
2018-12-26T09:34:45.916Z,296.29
2018-12-26T09:35:45.868Z,296.68
2018-12-26T09:36:45.854Z,296.51
2018-12-26T09:37:45.849Z,295.91
2018-12-26T09:38:45.840Z,296.87
2018-12-26T09:39:45.847Z,296.40
2018-12-26T09:40:45.815Z,296.37
2018-12-26T09:41:45.812Z,296.24
2018-12-26T09:42:45.829Z,296.83
2018-12-26T09:43:45.801Z,296.21
2018-12-26T09:44:54.205Z,296.95
2018-12-26T09:45:46.843Z,296.10
2018-12-26T09:46:45.753Z,296.31
2018-12-26T09:47:45.742Z,296.03
2018-12-26T09:48:45.729Z,296.01
2018-12-26T09:49:45.740Z,297.08
2018-12-26T09:50:45.736Z,296.81
2018-12-26T09:51:45.704Z,295.90
2018-12-26T09:52:45.687Z,296.37
2018-12-26T09:53:45.680Z,296.21
2018-12-26T09:54:45.668Z,296.52
2018-12-26T09:55:45.659Z,296.06
2018-12-26T09:56:45.660Z,295.96
2018-12-26T09:57:45.643Z,295.64
2018-12-26T09:58:52.502Z,296.71
2018-12-26T09:59:46.622Z,296.27
2018-12-26T10:00:45.610Z,296.81
2018-12-26T10:01:45.605Z,296.58
2018-12-26T10:02:45.597Z,296.67
2018-12-26T10:03:45.608Z,295.75
2018-12-26T10:04:45.564Z,296.13
2018-12-26T10:05:45.555Z,296.28
2018-12-26T10:06:45.543Z,296.75
2018-12-26T10:07:45.533Z,296.45
2018-12-26T10:08:45.521Z,296.13
2018-12-26T10:09:45.511Z,296.77
2018-12-26T10:10:45.497Z,296.97
2018-12-26T10:11:45.494Z,296.09
2018-12-26T10:12:45.498Z,296.42
2018-12-26T10:13:45.481Z,296.29
2018-12-26T10:14:45.467Z,296.57
2018-12-26T10:15:45.445Z,296.12
2018-12-26T10:16:45.434Z,296.29
2018-12-26T10:17:45.421Z,296.40
2018-12-26T10:18:45.409Z,295.67
2018-12-26T10:19:45.448Z,297.21
2018-12-26T10:20:45.391Z,296.01
2018-12-26T10:21:45.378Z,296.27
2018-12-26T10:22:45.383Z,296.00
2018-12-26T10:23:45.362Z,296.37
2018-12-26T10:24:45.361Z,296.58
2018-12-26T10:25:45.338Z,296.37
2018-12-26T10:26:45.331Z,296.47
2018-12-26T10:27:45.321Z,296.52
2018-12-26T10:28:45.314Z,296.48
2018-12-26T10:29:45.301Z,296.98
2018-12-26T10:30:45.287Z,296.53
2018-12-26T10:31:45.278Z,296.02
2018-12-26T10:32:45.267Z,295.42
2018-12-26T10:33:45.250Z,297.29
2018-12-26T10:34:45.249Z,296.61
2018-12-26T10:35:45.244Z,296.36
2018-12-26T10:36:45.226Z,296.01
2018-12-26T10:37:45.220Z,296.55
2018-12-26T10:38:45.245Z,296.01
2018-12-26T10:39:45.195Z,296.59
2018-12-26T10:40:45.191Z,296.21
2018-12-26T10:41:45.180Z,295.73
2018-12-26T10:42:46.089Z,297.37
2018-12-26T10:43:45.240Z,296.73
2018-12-26T10:44:45.140Z,296.28
2018-12-26T10:45:45.130Z,296.46
2018-12-26T10:46:45.132Z,296.81
2018-12-26T10:47:45.107Z,296.78
2018-12-26T10:48:45.106Z,296.10
2018-12-26T10:49:45.093Z,296.63
2018-12-26T10:50:45.084Z,295.77
2018-12-26T10:51:45.068Z,296.24
2018-12-26T10:52:45.073Z,296.61
2018-12-26T10:53:45.059Z,296.77
2018-12-26T10:54:45.033Z,296.25
2018-12-26T10:55:45.028Z,296.04
2018-12-26T10:56:45.009Z,296.82
2018-12-26T10:57:45.006Z,296.92
2018-12-26T10:58:44.997Z,296.13
2018-12-26T10:59:44.978Z,296.03
2018-12-26T11:00:44.976Z,295.95
2018-12-26T11:01:44.960Z,296.32
2018-12-26T11:02:44.955Z,296.65
2018-12-26T11:03:44.936Z,296.45
2018-12-26T11:04:44.937Z,296.44
2018-12-26T11:05:44.924Z,296.57
2018-12-26T11:06:44.913Z,296.61
2018-12-26T11:07:44.895Z,296.42
2018-12-26T11:08:44.885Z,296.24
2018-12-26T11:09:44.881Z,296.31
2018-12-26T11:10:44.875Z,297.10
2018-12-26T11:11:44.860Z,296.57
2018-12-26T11:12:44.844Z,296.17
2018-12-26T11:13:47.653Z,295.99
2018-12-26T11:14:44.820Z,296.27
2018-12-26T11:15:44.817Z,296.38
2018-12-26T11:16:44.802Z,296.47
2018-12-26T11:17:44.793Z,295.85
2018-12-26T11:18:44.783Z,296.02
2018-12-26T11:19:44.770Z,296.01
2018-12-26T11:20:44.775Z,296.41
2018-12-26T11:21:44.755Z,296.23
2018-12-26T11:22:44.741Z,296.54
2018-12-26T11:23:44.734Z,295.96
2018-12-26T11:24:44.719Z,296.58
2018-12-26T11:25:44.766Z,296.17
2018-12-26T11:26:44.699Z,296.71
2018-12-26T11:27:44.695Z,296.13
2018-12-26T11:28:44.682Z,297.33
2018-12-26T11:29:44.667Z,295.82
2018-12-26T11:30:44.655Z,295.98
2018-12-26T11:31:44.665Z,296.42
2018-12-26T11:32:44.635Z,296.22
2018-12-26T11:33:44.626Z,296.89
2018-12-26T11:34:44.645Z,296.10
2018-12-26T11:35:44.626Z,296.29
2018-12-26T11:36:44.589Z,296.59
2018-12-26T11:37:44.581Z,296.58
2018-12-26T11:38:44.569Z,296.57
2018-12-26T11:39:44.566Z,296.58
2018-12-26T11:40:44.550Z,296.49
2018-12-26T11:41:44.538Z,295.99
2018-12-26T11:42:44.536Z,295.86
2018-12-26T11:43:44.532Z,296.02
2018-12-26T11:44:44.546Z,296.55
2018-12-26T11:45:44.511Z,296.96
2018-12-26T11:46:44.494Z,296.12
2018-12-26T11:47:44.479Z,296.44
2018-12-26T11:48:44.472Z,296.15
2018-12-26T11:49:46.669Z,296.12
2018-12-26T11:50:44.447Z,297.01
2018-12-26T11:51:44.446Z,296.07
2018-12-26T11:52:44.460Z,296.08
2018-12-26T11:53:44.909Z,295.89
2018-12-26T11:54:44.423Z,296.55
2018-12-26T11:55:44.409Z,296.31
2018-12-26T11:56:44.387Z,296.55
2018-12-26T11:57:44.380Z,295.82
2018-12-26T11:58:44.358Z,296.44
2018-12-26T11:59:44.847Z,296.77
2018-12-26T12:00:44.339Z,296.30
2018-12-26T12:01:44.327Z,296.15
2018-12-26T12:02:44.414Z,296.13
2018-12-26T12:03:44.317Z,296.53
2018-12-26T12:04:44.318Z,295.88
2018-12-26T12:05:44.297Z,295.91
2018-12-26T12:06:44.287Z,296.33
2018-12-26T12:07:44.374Z,296.49
2018-12-26T12:08:44.260Z,296.61
2018-12-26T12:09:44.248Z,296.84
2018-12-26T12:10:44.245Z,296.58
2018-12-26T12:11:44.226Z,296.95
2018-12-26T12:12:44.212Z,296.60
2018-12-26T12:13:44.211Z,297.46
2018-12-26T12:14:44.196Z,296.45
2018-12-26T12:15:44.197Z,296.77
2018-12-26T12:16:44.169Z,296.13
2018-12-26T12:17:44.213Z,296.38
2018-12-26T12:18:47.682Z,296.08
2018-12-26T12:19:45.210Z,296.89
2018-12-26T12:20:44.140Z,296.24
2018-12-26T12:21:44.145Z,296.41
2018-12-26T12:22:44.113Z,296.39
2018-12-26T12:23:44.094Z,296.54
2018-12-26T12:24:44.110Z,296.85
2018-12-26T12:25:44.078Z,296.57
2018-12-26T12:26:44.074Z,297.20
2018-12-26T12:27:44.082Z,296.52
2018-12-26T12:28:44.056Z,296.30